createdAt,value
2018-02-22T00:00:32.158Z,55.00
2018-02-22T00:01:32.132Z,55.00
2018-02-22T00:02:32.123Z,53.00
2018-02-22T00:03:32.115Z,54.20
2018-02-22T00:04:32.116Z,55.80
2018-02-22T00:05:32.099Z,59.20
2018-02-22T00:06:32.107Z,51.70
2018-02-22T00:07:32.078Z,54.30
2018-02-22T00:08:32.070Z,55.00
2018-02-22T00:09:32.060Z,50.60
2018-02-22T00:10:32.051Z,53.30
2018-02-22T00:11:32.043Z,54.60
2018-02-22T00:12:32.036Z,58.00
2018-02-22T00:13:32.024Z,54.00
2018-02-22T00:14:32.015Z,58.90
2018-02-22T00:15:32.007Z,62.80
2018-02-22T00:16:31.997Z,55.80
2018-02-22T00:17:31.988Z,61.20
2018-02-22T00:18:31.980Z,54.20
2018-02-22T00:19:31.970Z,55.80
2018-02-22T00:20:31.962Z,56.60
2018-02-22T00:21:31.952Z,57.60
2018-02-22T00:22:31.946Z,57.30
2018-02-22T00:23:31.934Z,58.60
2018-02-22T00:24:31.925Z,54.50
2018-02-22T00:25:31.917Z,56.50
2018-02-22T00:26:31.907Z,56.20
2018-02-22T00:27:31.897Z,57.60
2018-02-22T00:28:31.897Z,50.80
2018-02-22T00:29:31.894Z,54.70
2018-02-22T00:30:31.873Z,57.10
2018-02-22T00:31:31.861Z,57.40
2018-02-22T00:32:31.853Z,55.00
2018-02-22T00:33:31.842Z,58.20
2018-02-22T00:34:31.833Z,57.20
2018-02-22T00:35:31.827Z,55.60
2018-02-22T00:36:31.816Z,59.10
2018-02-22T00:37:31.831Z,55.70
2018-02-22T00:38:31.797Z,60.70
2018-02-22T00:39:31.789Z,63.70
2018-02-22T00:40:31.780Z,56.50
2018-02-22T00:41:31.771Z,56.00
2018-02-22T00:42:31.761Z,54.60
2018-02-22T00:43:31.757Z,51.20
2018-02-22T00:44:31.744Z,59.00
2018-02-22T00:45:31.734Z,55.30
2018-02-22T00:46:31.725Z,56.50
2018-02-22T00:47:31.717Z,55.00
2018-02-22T00:48:31.742Z,57.40
2018-02-22T00:49:31.697Z,56.70
2018-02-22T00:50:31.688Z,57.80
2018-02-22T00:51:31.680Z,56.20
2018-02-22T00:52:31.671Z,60.50
2018-02-22T00:53:31.699Z,59.00
2018-02-22T00:54:31.654Z,60.70
2018-02-22T00:55:31.643Z,57.60
2018-02-22T00:56:31.634Z,59.70
2018-02-22T00:57:31.625Z,56.00
2018-02-22T00:58:31.619Z,58.70
2018-02-22T00:59:31.607Z,60.00
2018-02-22T01:00:31.600Z,57.80
2018-02-22T01:01:31.588Z,58.10
2018-02-22T01:02:31.589Z,61.70
2018-02-22T01:03:31.573Z,62.40
2018-02-22T01:04:31.561Z,59.60
2018-02-22T01:05:31.551Z,67.30
2018-02-22T01:06:31.542Z,65.20
2018-02-22T01:07:31.534Z,58.00
2018-02-22T01:08:31.531Z,64.30
2018-02-22T01:09:31.524Z,63.00
2018-02-22T01:10:31.510Z,65.70
2018-02-22T01:11:31.512Z,59.60
2018-02-22T01:12:31.488Z,69.20
2018-02-22T01:13:31.478Z,64.70
2018-02-22T01:14:31.479Z,61.70
2018-02-22T01:15:31.460Z,58.10
2018-02-22T01:16:31.452Z,60.80
2018-02-22T01:17:31.442Z,63.50
2018-02-22T01:18:31.433Z,62.20
2018-02-22T01:19:31.423Z,65.50
2018-02-22T01:20:31.416Z,67.50
2018-02-22T01:21:31.405Z,64.30
2018-02-22T01:22:31.397Z,66.60
2018-02-22T01:23:31.389Z,59.20
2018-02-22T01:24:31.380Z,62.50
2018-02-22T01:25:31.370Z,66.40
2018-02-22T01:26:31.360Z,65.80
2018-02-22T01:27:31.352Z,65.80
2018-02-22T01:28:31.342Z,62.90
2018-02-22T01:29:31.332Z,65.40
2018-02-22T01:30:31.323Z,58.20
2018-02-22T01:31:31.314Z,60.70
2018-02-22T01:32:31.332Z,65.70
2018-02-22T01:33:31.295Z,62.90
2018-02-22T01:34:31.286Z,68.70
2018-02-22T01:35:31.278Z,68.40
2018-02-22T01:36:31.268Z,67.00
2018-02-22T01:37:31.259Z,69.50
2018-02-22T01:38:31.263Z,67.90
2018-02-22T01:39:31.243Z,63.00
2018-02-22T01:40:31.235Z,65.00
2018-02-22T01:41:31.222Z,66.70
2018-02-22T01:42:31.218Z,65.40
2018-02-22T01:43:31.205Z,63.20
2018-02-22T01:44:31.196Z,65.50
2018-02-22T01:45:31.186Z,67.10
2018-02-22T01:46:31.176Z,64.80
2018-02-22T01:47:31.173Z,63.20
2018-02-22T01:48:31.157Z,65.10
2018-02-22T01:49:31.148Z,68.00
2018-02-22T01:50:31.150Z,69.60
2018-02-22T01:51:31.131Z,65.40
2018-02-22T01:52:31.122Z,63.40
2018-02-22T01:53:31.112Z,62.30
2018-02-22T01:54:31.102Z,63.50
2018-02-22T01:55:31.094Z,67.80
2018-02-22T01:56:31.399Z,64.70
2018-02-22T01:57:31.075Z,70.90
2018-02-22T01:58:31.066Z,66.90
2018-02-22T01:59:31.057Z,66.60
2018-02-22T02:00:31.049Z,69.50
2018-02-22T02:01:31.039Z,65.60
2018-02-22T02:02:31.031Z,67.00
2018-02-22T02:03:31.021Z,64.70
2018-02-22T02:04:31.012Z,70.60
2018-02-22T02:05:31.006Z,65.00
2018-02-22T02:06:30.993Z,63.90
2018-02-22T02:07:30.985Z,70.50
2018-02-22T02:08:30.978Z,65.20
2018-02-22T02:09:30.964Z,66.40
2018-02-22T02:10:30.959Z,69.40
2018-02-22T02:11:30.947Z,71.10
2018-02-22T02:12:30.938Z,69.50
2018-02-22T02:13:30.929Z,70.40
2018-02-22T02:14:30.921Z,63.30
2018-02-22T02:15:30.912Z,69.10
2018-02-22T02:16:30.917Z,72.60
2018-02-22T02:17:30.892Z,72.80
2018-02-22T02:18:30.883Z,67.70
2018-02-22T02:19:30.875Z,72.70
2018-02-22T02:20:30.866Z,70.90
2018-02-22T02:21:30.856Z,69.30
2018-02-22T02:22:30.846Z,73.70
2018-02-22T02:23:30.838Z,72.60
2018-02-22T02:24:30.834Z,69.80
2018-02-22T02:25:30.819Z,67.40
2018-02-22T02:26:30.812Z,72.00
2018-02-22T02:27:30.801Z,73.80
2018-02-22T02:28:30.796Z,77.50
2018-02-22T02:29:30.782Z,78.00
2018-02-22T02:30:30.774Z,72.90
2018-02-22T02:31:30.765Z,74.70
2018-02-22T02:32:30.763Z,72.40
2018-02-22T02:33:30.745Z,76.60
2018-02-22T02:34:30.736Z,72.70
2018-02-22T02:35:30.728Z,67.50
2018-02-22T02:36:30.719Z,72.70
2018-02-22T02:37:30.708Z,80.20
2018-02-22T02:38:30.700Z,74.50
2018-02-22T02:39:30.691Z,76.90
2018-02-22T02:40:30.686Z,71.10
2018-02-22T02:41:30.673Z,81.30
2018-02-22T02:42:30.662Z,71.40
2018-02-22T02:43:30.653Z,74.20
2018-02-22T02:44:30.643Z,74.90
2018-02-22T02:45:30.633Z,72.40
2018-02-22T02:46:30.626Z,77.30
2018-02-22T02:47:30.621Z,74.50
2018-02-22T02:48:30.608Z,74.20
2018-02-22T02:49:30.595Z,77.00
2018-02-22T02:50:30.589Z,78.80
2018-02-22T02:51:30.579Z,78.80
2018-02-22T02:52:30.573Z,72.80
2018-02-22T02:53:30.560Z,74.10
2018-02-22T02:54:30.551Z,69.20
2018-02-22T02:55:30.559Z,72.70
2018-02-22T02:56:30.531Z,76.20
2018-02-22T02:57:30.523Z,75.60
2018-02-22T02:58:30.517Z,74.00
2018-02-22T02:59:30.506Z,76.10
2018-02-22T03:00:30.499Z,78.50
2018-02-22T03:01:30.485Z,73.50
2018-02-22T03:02:30.477Z,75.20
2018-02-22T03:03:30.468Z,74.70
2018-02-22T03:04:30.457Z,67.10
2018-02-22T03:05:30.447Z,76.60
2018-02-22T03:06:30.438Z,72.00
2018-02-22T03:07:30.430Z,74.00
2018-02-22T03:08:30.421Z,81.10
2018-02-22T03:09:30.410Z,76.20
2018-02-22T03:10:30.401Z,78.30
2018-02-22T03:11:30.392Z,75.70
2018-02-22T03:12:30.395Z,76.60
2018-02-22T03:13:30.373Z,71.60
2018-02-22T03:14:30.365Z,73.00
2018-02-22T03:15:30.366Z,75.40
2018-02-22T03:16:30.346Z,77.70
2018-02-22T03:17:30.336Z,73.60
2018-02-22T03:18:30.328Z,72.90
2018-02-22T03:19:30.332Z,79.90
2018-02-22T03:20:30.308Z,70.80
2018-02-22T03:21:30.297Z,69.40
2018-02-22T03:22:30.289Z,75.20
2018-02-22T03:23:30.280Z,75.30
2018-02-22T03:24:30.270Z,63.70
2018-02-22T03:25:30.260Z,71.10
2018-02-22T03:26:30.253Z,71.90
2018-02-22T03:27:30.241Z,74.00
2018-02-22T03:28:30.232Z,75.80
2018-02-22T03:29:30.224Z,69.60
2018-02-22T03:30:30.214Z,67.80
2018-02-22T03:31:30.206Z,68.60
2018-02-22T03:32:30.199Z,77.50
2018-02-22T03:33:30.186Z,66.20
2018-02-22T03:34:30.177Z,70.50
2018-02-22T03:35:30.168Z,74.10
2018-02-22T03:36:30.160Z,72.30
2018-02-22T03:37:30.148Z,75.80
2018-02-22T03:38:30.146Z,70.80
2018-02-22T03:39:30.130Z,66.60
2018-02-22T03:40:30.121Z,71.50
2018-02-22T03:41:30.112Z,71.40
2018-02-22T03:42:30.102Z,69.20
2018-02-22T03:43:30.093Z,72.00
2018-02-22T03:44:30.084Z,73.10
2018-02-22T03:45:30.075Z,68.80
2018-02-22T03:46:30.064Z,71.20
2018-02-22T03:47:30.056Z,66.60
2018-02-22T03:48:30.045Z,68.70
2018-02-22T03:49:30.083Z,66.90
2018-02-22T03:50:30.028Z,70.00
2018-02-22T03:51:30.019Z,69.50
2018-02-22T03:52:30.009Z,75.50
2018-02-22T03:53:30.000Z,72.90
2018-02-22T03:54:30.038Z,74.90
2018-02-22T03:55:29.986Z,68.30
2018-02-22T03:56:29.972Z,68.30
2018-02-22T03:57:29.963Z,72.70
2018-02-22T03:58:29.953Z,68.40
2018-02-22T03:59:29.944Z,68.10
2018-02-22T04:00:29.936Z,71.70
2018-02-22T04:01:29.924Z,70.50
2018-02-22T04:02:29.920Z,71.40
2018-02-22T04:03:29.906Z,70.70
2018-02-22T04:04:29.900Z,71.50
2018-02-22T04:05:29.887Z,67.20
2018-02-22T04:06:29.877Z,72.60
2018-02-22T04:07:29.869Z,72.90
2018-02-22T04:08:29.860Z,68.90
2018-02-22T04:09:29.849Z,69.10
2018-02-22T04:10:29.842Z,71.20
2018-02-22T04:11:29.832Z,77.50
2018-02-22T04:12:29.827Z,72.70
2018-02-22T04:13:29.812Z,70.80
2018-02-22T04:14:29.803Z,72.10
2018-02-22T04:15:29.795Z,64.90
2018-02-22T04:16:29.784Z,72.40
2018-02-22T04:17:29.790Z,71.30
2018-02-22T04:18:29.767Z,66.90
2018-02-22T04:19:29.757Z,63.50
2018-02-22T04:20:29.758Z,61.10
2018-02-22T04:21:29.738Z,65.80
2018-02-22T04:22:29.730Z,71.60
2018-02-22T04:23:29.768Z,71.00
2018-02-22T04:24:29.710Z,63.60
2018-02-22T04:25:29.701Z,64.20
2018-02-22T04:26:29.691Z,60.80
2018-02-22T04:27:29.682Z,59.50
2018-02-22T04:28:29.674Z,62.10
2018-02-22T04:29:29.664Z,59.40
2018-02-22T04:30:29.653Z,63.20
2018-02-22T04:31:29.646Z,58.00
2018-02-22T04:32:29.654Z,59.70
2018-02-22T04:33:29.626Z,60.00
2018-02-22T04:34:29.617Z,60.40
2018-02-22T04:35:29.609Z,56.70
2018-02-22T04:36:29.598Z,55.10
2018-02-22T04:37:29.589Z,57.20
2018-02-22T04:38:29.578Z,54.60
2018-02-22T04:39:29.571Z,54.60
2018-02-22T04:40:29.561Z,56.10
2018-02-22T04:41:29.550Z,58.00
2018-02-22T04:42:29.540Z,56.20
2018-02-22T04:43:29.532Z,53.70
2018-02-22T04:44:29.523Z,55.90
2018-02-22T04:45:29.514Z,54.00
2018-02-22T04:46:29.504Z,51.70
2018-02-22T04:47:29.495Z,53.90
2018-02-22T04:48:29.486Z,53.00
2018-02-22T04:49:29.476Z,52.00
2018-02-22T04:50:29.491Z,50.10
2018-02-22T04:51:29.458Z,52.60
2018-02-22T04:52:29.449Z,50.30
2018-02-22T04:53:29.439Z,50.30
2018-02-22T04:54:29.446Z,48.00
2018-02-22T04:55:29.420Z,56.40
2018-02-22T04:56:29.416Z,47.80
2018-02-22T04:57:29.402Z,50.20
2018-02-22T04:58:29.393Z,48.60
2018-02-22T04:59:29.382Z,51.50
2018-02-22T05:00:29.376Z,50.50
2018-02-22T05:01:29.364Z,47.10
2018-02-22T05:02:29.354Z,48.00
2018-02-22T05:03:29.345Z,50.40
2018-02-22T05:04:29.336Z,45.10
2018-02-22T05:05:29.327Z,48.10
2018-02-22T05:06:29.317Z,44.80
2018-02-22T05:07:29.308Z,46.30
2018-02-22T05:08:29.349Z,49.60
2018-02-22T05:09:29.288Z,47.80
2018-02-22T05:10:29.279Z,49.50
2018-02-22T05:11:29.269Z,43.20
2018-02-22T05:12:29.263Z,44.40
2018-02-22T05:13:29.251Z,46.70
2018-02-22T05:14:29.240Z,43.20
2018-02-22T05:15:29.234Z,43.90
2018-02-22T05:16:29.225Z,46.60
2018-02-22T05:17:29.214Z,42.90
2018-02-22T05:18:29.204Z,48.60
2018-02-22T05:19:29.195Z,45.00
2018-02-22T05:20:29.185Z,47.40
2018-02-22T05:21:29.177Z,44.50
2018-02-22T05:22:29.166Z,42.40
2018-02-22T05:23:29.157Z,44.30
2018-02-22T05:24:29.149Z,42.50
2018-02-22T05:25:29.137Z,38.20
2018-02-22T05:26:29.128Z,40.30
2018-02-22T05:27:29.118Z,44.80
2018-02-22T05:28:29.109Z,39.90
2018-02-22T05:29:29.262Z,41.40
2018-02-22T05:30:29.090Z,42.00
2018-02-22T05:31:29.081Z,43.90
2018-02-22T05:32:29.074Z,40.70
2018-02-22T05:33:29.062Z,39.10
2018-02-22T05:34:29.053Z,41.00
2018-02-22T05:35:29.043Z,42.10
2018-02-22T05:36:29.033Z,42.40
2018-02-22T05:37:29.023Z,40.20
2018-02-22T05:38:29.013Z,42.90
2018-02-22T05:39:29.004Z,41.50
2018-02-22T05:40:28.995Z,43.50
2018-02-22T05:41:28.984Z,42.30
2018-02-22T05:42:28.981Z,45.00
2018-02-22T05:43:28.966Z,41.20
2018-02-22T05:44:28.956Z,45.30
2018-02-22T05:45:28.947Z,42.00
2018-02-22T05:46:28.940Z,44.60
2018-02-22T05:47:28.927Z,45.40
2018-02-22T05:48:28.918Z,39.80
2018-02-22T05:49:28.907Z,41.10
2018-02-22T05:50:28.897Z,41.10
2018-02-22T05:51:28.890Z,43.00
2018-02-22T05:52:28.881Z,42.40
2018-02-22T05:53:28.867Z,39.50
2018-02-22T05:54:28.859Z,42.90
2018-02-22T05:55:28.848Z,41.50
2018-02-22T05:56:28.841Z,41.80
2018-02-22T05:57:28.830Z,42.00
2018-02-22T05:58:28.821Z,40.40
2018-02-22T05:59:28.810Z,41.00
2018-02-22T06:00:28.800Z,39.60
2018-02-22T06:01:28.790Z,42.20
2018-02-22T06:02:28.783Z,44.30
2018-02-22T06:03:28.772Z,47.90
2018-02-22T06:04:28.761Z,42.30
2018-02-22T06:05:28.751Z,42.10
2018-02-22T06:06:28.742Z,42.00
2018-02-22T06:07:28.734Z,43.20
2018-02-22T06:08:28.722Z,43.40
2018-02-22T06:09:28.712Z,45.10
2018-02-22T06:10:28.704Z,44.40
2018-02-22T06:11:28.693Z,41.40
2018-02-22T06:12:28.685Z,42.00
2018-02-22T06:13:28.673Z,38.80
2018-02-22T06:14:28.664Z,43.40
2018-02-22T06:15:28.654Z,42.10
2018-02-22T06:16:28.656Z,42.00
2018-02-22T06:17:28.634Z,39.60
2018-02-22T06:18:28.625Z,42.70
2018-02-22T06:19:28.614Z,43.20
2018-02-22T06:20:28.606Z,46.40
2018-02-22T06:21:28.595Z,45.00
2018-02-22T06:22:28.598Z,40.60
2018-02-22T06:23:28.583Z,40.90
2018-02-22T06:24:28.568Z,42.10
2018-02-22T06:25:28.557Z,44.10
2018-02-22T06:26:28.546Z,45.80
2018-02-22T06:27:28.536Z,44.70
2018-02-22T06:28:28.527Z,42.40
2018-02-22T06:29:28.518Z,40.90
2018-02-22T06:30:28.506Z,41.40
2018-02-22T06:31:28.498Z,41.40
2018-02-22T06:32:28.488Z,43.10
2018-02-22T06:33:28.478Z,44.70
2018-02-22T06:34:28.468Z,42.90
2018-02-22T06:35:28.458Z,43.40
2018-02-22T06:36:28.772Z,38.50
2018-02-22T06:37:28.442Z,42.10
2018-02-22T06:38:28.428Z,44.20
2018-02-22T06:39:28.423Z,43.10
2018-02-22T06:40:28.410Z,43.50
2018-02-22T06:41:28.401Z,46.60
2018-02-22T06:42:28.391Z,43.30
2018-02-22T06:43:28.380Z,38.60
2018-02-22T06:44:28.370Z,44.00
2018-02-22T06:45:28.360Z,46.80
2018-02-22T06:46:28.350Z,44.30
2018-02-22T06:47:28.341Z,40.20
2018-02-22T06:48:28.331Z,42.80
2018-02-22T06:49:28.320Z,45.70
2018-02-22T06:50:28.312Z,43.60
2018-02-22T06:51:28.301Z,46.90
2018-02-22T06:52:28.302Z,43.40
2018-02-22T06:53:28.282Z,38.70
2018-02-22T06:54:28.272Z,43.80
2018-02-22T06:55:28.261Z,45.00
2018-02-22T06:56:28.253Z,39.70
2018-02-22T06:57:28.243Z,44.10
2018-02-22T06:58:28.234Z,45.30
2018-02-22T06:59:28.223Z,41.40
2018-02-22T07:00:28.214Z,45.60
2018-02-22T07:01:28.203Z,44.30
2018-02-22T07:02:28.194Z,41.30
2018-02-22T07:03:28.184Z,40.30
2018-02-22T07:04:28.173Z,41.40
2018-02-22T07:05:28.164Z,39.70
2018-02-22T07:06:28.154Z,42.00
2018-02-22T07:07:28.144Z,44.80
2018-02-22T07:08:28.135Z,44.70
2018-02-22T07:09:28.126Z,45.00
2018-02-22T07:10:28.115Z,46.90
2018-02-22T07:11:28.105Z,43.00
2018-02-22T07:12:28.097Z,45.00
2018-02-22T07:13:28.085Z,41.90
2018-02-22T07:14:28.075Z,42.90
2018-02-22T07:15:28.085Z,43.50
2018-02-22T07:16:28.056Z,41.90
2018-02-22T07:17:28.046Z,45.60
2018-02-22T07:18:28.037Z,44.60
2018-02-22T07:19:28.027Z,41.40
2018-02-22T07:20:28.023Z,43.60
2018-02-22T07:21:28.007Z,44.10
2018-02-22T07:22:27.998Z,43.40
2018-02-22T07:23:27.987Z,43.70
2018-02-22T07:24:27.977Z,39.90
2018-02-22T07:25:27.969Z,40.70
2018-02-22T07:26:27.961Z,42.20
2018-02-22T07:27:27.950Z,45.90
2018-02-22T07:28:27.939Z,43.90
2018-02-22T07:29:27.928Z,43.20
2018-02-22T07:30:27.918Z,41.40
2018-02-22T07:31:27.909Z,45.60
2018-02-22T07:32:27.939Z,46.10
2018-02-22T07:33:27.888Z,46.80
2018-02-22T07:34:27.880Z,49.40
2018-02-22T07:35:27.870Z,41.80
2018-02-22T07:36:27.860Z,41.50
2018-02-22T07:37:27.850Z,44.00
2018-02-22T07:38:27.841Z,44.80
2018-02-22T07:39:27.830Z,44.90
2018-02-22T07:40:27.822Z,43.90
2018-02-22T07:41:27.811Z,42.70
2018-02-22T07:42:27.801Z,45.90
2018-02-22T07:43:27.929Z,46.70
2018-02-22T07:44:27.782Z,43.40
2018-02-22T07:45:27.775Z,44.30
2018-02-22T07:46:27.762Z,41.80
2018-02-22T07:47:27.753Z,41.70
2018-02-22T07:48:27.744Z,41.60
2018-02-22T07:49:27.732Z,39.60
2018-02-22T07:50:27.724Z,44.40
2018-02-22T07:51:27.713Z,42.30
2018-02-22T07:52:27.703Z,46.40
2018-02-22T07:53:27.694Z,50.50
2018-02-22T07:54:27.685Z,45.40
2018-02-22T07:55:27.676Z,48.30
2018-02-22T07:56:27.677Z,44.70
2018-02-22T07:57:27.657Z,39.80
2018-02-22T07:58:27.645Z,50.10
2018-02-22T07:59:27.636Z,50.30
2018-02-22T08:00:27.627Z,47.60
2018-02-22T08:01:27.619Z,44.60
2018-02-22T08:02:27.606Z,45.30
2018-02-22T08:03:27.597Z,45.10
2018-02-22T08:04:27.588Z,41.30
2018-02-22T08:05:27.593Z,42.30
2018-02-22T08:06:27.567Z,41.10
2018-02-22T08:07:27.558Z,46.70
2018-02-22T08:08:27.549Z,41.40
2018-02-22T08:09:27.539Z,46.40
2018-02-22T08:10:27.528Z,41.20
2018-02-22T08:11:27.524Z,39.90
2018-02-22T08:12:27.510Z,41.70
2018-02-22T08:13:27.500Z,39.00
2018-02-22T08:14:27.490Z,39.80
2018-02-22T08:15:27.484Z,39.50
2018-02-22T08:16:27.472Z,42.00
2018-02-22T08:17:27.466Z,46.30
2018-02-22T08:18:27.452Z,45.10
2018-02-22T08:19:27.444Z,41.60
2018-02-22T08:20:27.433Z,43.50
2018-02-22T08:21:27.438Z,40.30
2018-02-22T08:22:27.416Z,42.30
2018-02-22T08:23:27.404Z,41.90
2018-02-22T08:24:27.397Z,44.70
2018-02-22T08:25:27.391Z,42.30
2018-02-22T08:26:27.374Z,42.00
2018-02-22T08:27:27.366Z,42.80
2018-02-22T08:28:27.359Z,45.60
2018-02-22T08:29:27.354Z,41.00
2018-02-22T08:30:27.337Z,39.40
2018-02-22T08:31:27.329Z,43.70
2018-02-22T08:32:27.389Z,39.50
2018-02-22T08:33:27.308Z,41.70
2018-02-22T08:34:27.299Z,40.90
2018-02-22T08:35:27.290Z,43.40
2018-02-22T08:36:27.423Z,38.70
2018-02-22T08:37:27.270Z,44.40
2018-02-22T08:38:27.261Z,43.10
2018-02-22T08:39:27.252Z,46.00
2018-02-22T08:40:27.243Z,45.10
2018-02-22T08:41:27.232Z,43.80
2018-02-22T08:42:27.223Z,42.20
2018-02-22T08:43:27.389Z,38.30
2018-02-22T08:44:27.205Z,37.20
2018-02-22T08:45:27.195Z,43.70
2018-02-22T08:46:27.185Z,39.30
2018-02-22T08:47:27.176Z,38.80
2018-02-22T08:48:27.172Z,40.40
2018-02-22T08:49:27.158Z,44.90
2018-02-22T08:50:27.148Z,39.80
2018-02-22T08:51:27.138Z,44.00
2018-02-22T08:52:27.131Z,42.30
2018-02-22T08:53:27.120Z,42.00
2018-02-22T08:54:27.111Z,42.90
2018-02-22T08:55:27.102Z,42.40
2018-02-22T08:56:27.093Z,41.50
2018-02-22T08:57:27.083Z,40.20
2018-02-22T08:58:27.073Z,39.20
2018-02-22T08:59:27.064Z,38.20
2018-02-22T09:00:27.056Z,45.90
2018-02-22T09:01:27.046Z,49.80
2018-02-22T09:02:27.040Z,48.10
2018-02-22T09:03:27.027Z,41.60
2018-02-22T09:04:27.017Z,42.20
2018-02-22T09:05:27.010Z,41.60
2018-02-22T09:06:27.005Z,39.80
2018-02-22T09:07:26.990Z,41.20
2018-02-22T09:08:26.982Z,41.90
2018-02-22T09:09:26.971Z,41.90
2018-02-22T09:10:26.964Z,40.90
2018-02-22T09:11:26.954Z,38.80
2018-02-22T09:12:26.950Z,39.60
2018-02-22T09:13:26.934Z,37.40
2018-02-22T09:14:26.924Z,40.40
2018-02-22T09:15:26.919Z,41.10
2018-02-22T09:16:26.908Z,38.10
2018-02-22T09:17:26.898Z,36.80
2018-02-22T09:18:27.110Z,38.70
2018-02-22T09:19:26.880Z,36.10
2018-02-22T09:20:26.873Z,39.00
2018-02-22T09:21:26.862Z,40.20
2018-02-22T09:22:26.853Z,37.60
2018-02-22T09:23:27.140Z,40.10
2018-02-22T09:24:26.837Z,39.60
2018-02-22T09:25:26.824Z,34.50
2018-02-22T09:26:26.830Z,38.80
2018-02-22T09:27:26.810Z,36.70
2018-02-22T09:28:26.811Z,34.00
2018-02-22T09:29:26.791Z,34.20
2018-02-22T09:30:26.780Z,36.30
2018-02-22T09:31:26.768Z,36.00
2018-02-22T09:32:26.764Z,36.30
2018-02-22T09:33:26.907Z,34.80
2018-02-22T09:34:26.742Z,37.90
2018-02-22T09:35:26.733Z,39.70
2018-02-22T09:36:26.733Z,34.80
2018-02-22T09:37:26.715Z,35.80
2018-02-22T09:38:26.706Z,40.40
2018-02-22T09:39:26.702Z,37.10
2018-02-22T09:40:26.707Z,38.60
2018-02-22T09:41:26.677Z,36.20
2018-02-22T09:42:26.669Z,36.90
2018-02-22T09:43:26.661Z,35.10
2018-02-22T09:44:26.653Z,35.70
2018-02-22T09:45:26.643Z,41.20
2018-02-22T09:46:26.688Z,37.80
2018-02-22T09:47:26.870Z,38.00
2018-02-22T09:48:26.628Z,38.60
2018-02-22T09:49:26.624Z,39.80
2018-02-22T09:50:26.626Z,37.60
2018-02-22T09:51:26.627Z,40.30
2018-02-22T09:52:26.611Z,41.00
2018-02-22T09:53:26.603Z,40.00
2018-02-22T09:54:26.596Z,41.20
2018-02-22T09:55:26.581Z,40.20
2018-02-22T09:56:26.583Z,37.70
2018-02-22T09:57:26.535Z,37.30
2018-02-22T09:58:26.535Z,36.30
2018-02-22T09:59:26.520Z,38.40
2018-02-22T10:00:26.512Z,39.20
2018-02-22T10:01:26.716Z,41.00
2018-02-22T10:02:26.922Z,35.80
2018-02-22T10:03:26.484Z,39.50
2018-02-22T10:04:26.475Z,36.10
2018-02-22T10:05:26.466Z,36.30
2018-02-22T10:06:26.458Z,35.90
2018-02-22T10:07:26.449Z,36.80
2018-02-22T10:08:26.440Z,37.10
2018-02-22T10:09:26.430Z,37.30
2018-02-22T10:10:26.426Z,34.50
2018-02-22T10:11:26.419Z,37.30
2018-02-22T10:12:26.406Z,36.50
2018-02-22T10:13:26.396Z,38.00
2018-02-22T10:14:26.388Z,36.40
2018-02-22T10:15:26.381Z,43.80
2018-02-22T10:16:26.371Z,36.00
2018-02-22T10:17:26.362Z,39.30
2018-02-22T10:18:26.352Z,40.80
2018-02-22T10:19:26.345Z,39.70
2018-02-22T10:20:26.345Z,37.60
2018-02-22T10:21:26.329Z,38.50
2018-02-22T10:22:26.316Z,34.90
2018-02-22T10:23:26.349Z,38.60
2018-02-22T10:24:26.367Z,39.90
2018-02-22T10:25:26.292Z,37.90
2018-02-22T10:26:26.284Z,43.00
2018-02-22T10:27:26.276Z,38.40
2018-02-22T10:28:26.265Z,38.80
2018-02-22T10:29:26.257Z,43.40
2018-02-22T10:30:26.248Z,43.60
2018-02-22T10:31:26.256Z,42.60
2018-02-22T10:32:26.233Z,39.10
2018-02-22T10:33:26.227Z,45.50
2018-02-22T10:34:26.215Z,40.50
2018-02-22T10:35:26.207Z,40.60
2018-02-22T10:36:26.204Z,40.30
2018-02-22T10:37:26.189Z,40.00
2018-02-22T10:38:26.181Z,41.80
2018-02-22T10:39:26.172Z,43.90
2018-02-22T10:40:26.165Z,49.60
2018-02-22T10:41:26.157Z,44.20
2018-02-22T10:42:26.146Z,42.50
2018-02-22T10:43:26.141Z,44.60
2018-02-22T10:44:26.131Z,43.80
2018-02-22T10:45:26.141Z,43.80
2018-02-22T10:46:26.113Z,46.30
2018-02-22T10:47:26.106Z,48.20
2018-02-22T10:48:26.121Z,42.20
2018-02-22T10:49:26.088Z,42.80
2018-02-22T10:50:26.081Z,42.20
2018-02-22T10:51:26.072Z,43.70
2018-02-22T10:52:26.074Z,41.00
2018-02-22T10:53:26.059Z,42.70
2018-02-22T10:54:26.048Z,45.70
2018-02-22T10:55:26.040Z,41.40
2018-02-22T10:56:26.031Z,45.90
2018-02-22T10:57:26.024Z,48.30
2018-02-22T10:58:26.016Z,44.00
2018-02-22T10:59:26.008Z,42.40
2018-02-22T11:00:26.001Z,43.60
2018-02-22T11:01:25.993Z,44.50
2018-02-22T11:02:25.986Z,44.90
2018-02-22T11:03:25.977Z,44.20
2018-02-22T11:04:25.971Z,45.00
2018-02-22T11:05:25.963Z,39.30
2018-02-22T11:06:25.957Z,46.60
2018-02-22T11:07:25.952Z,41.10
2018-02-22T11:08:25.945Z,40.70
2018-02-22T11:09:26.001Z,38.50
2018-02-22T11:10:25.953Z,44.60
2018-02-22T11:11:25.922Z,41.10
2018-02-22T11:12:25.916Z,41.90
2018-02-22T11:13:25.918Z,40.20
2018-02-22T11:14:25.902Z,43.80
2018-02-22T11:15:25.894Z,42.10
2018-02-22T11:16:25.885Z,42.10
2018-02-22T11:17:25.880Z,42.40
2018-02-22T11:18:25.873Z,43.70
2018-02-22T11:19:25.866Z,41.40
2018-02-22T11:20:25.858Z,36.70
2018-02-22T11:21:25.984Z,41.00
2018-02-22T11:22:25.861Z,40.10
2018-02-22T11:23:25.839Z,42.70
2018-02-22T11:24:26.021Z,38.60
2018-02-22T11:25:25.822Z,42.20
2018-02-22T11:26:25.814Z,37.00
2018-02-22T11:27:25.991Z,42.10
2018-02-22T11:28:26.003Z,40.70
2018-02-22T11:29:25.793Z,39.60
2018-02-22T11:30:25.786Z,38.80
2018-02-22T11:31:25.793Z,39.80
2018-02-22T11:32:25.771Z,41.50
2018-02-22T11:33:25.784Z,38.80
2018-02-22T11:34:25.772Z,39.70
2018-02-22T11:35:25.750Z,34.90
2018-02-22T11:36:25.743Z,37.40
2018-02-22T11:37:25.736Z,36.10
2018-02-22T11:38:25.728Z,36.70
2018-02-22T11:39:25.722Z,37.70
2018-02-22T11:40:25.732Z,38.40
2018-02-22T11:41:25.706Z,39.00
2018-02-22T11:42:25.704Z,40.90
2018-02-22T11:43:25.693Z,39.70
2018-02-22T11:44:25.689Z,42.60
2018-02-22T11:45:25.678Z,40.50
2018-02-22T11:46:25.671Z,40.90
2018-02-22T11:47:25.663Z,39.00
2018-02-22T11:48:25.656Z,43.40
2018-02-22T11:49:25.648Z,40.10
2018-02-22T11:50:25.642Z,42.60
2018-02-22T11:51:25.634Z,41.20
2018-02-22T11:52:25.626Z,41.00
2018-02-22T11:53:25.617Z,41.80
2018-02-22T11:54:25.612Z,44.70
2018-02-22T11:55:25.603Z,43.90
2018-02-22T11:56:25.596Z,46.60
2018-02-22T11:57:25.587Z,44.10
2018-02-22T11:58:25.587Z,42.50
2018-02-22T11:59:25.574Z,42.50
2018-02-22T12:00:25.564Z,41.20
2018-02-22T12:01:25.556Z,39.00
2018-02-22T12:02:25.548Z,42.50
2018-02-22T12:03:25.540Z,36.30
2018-02-22T12:04:25.541Z,34.00
2018-02-22T12:05:25.524Z,38.70
2018-02-22T12:06:25.516Z,36.50
2018-02-22T12:07:25.510Z,34.50
2018-02-22T12:08:25.502Z,33.60
2018-02-22T12:09:25.493Z,36.20
2018-02-22T12:10:25.486Z,38.40
2018-02-22T12:11:25.492Z,39.10
2018-02-22T12:12:25.470Z,39.50
2018-02-22T12:13:25.460Z,34.70
2018-02-22T12:14:25.452Z,37.60
2018-02-22T12:15:25.445Z,33.80
2018-02-22T12:16:25.438Z,34.80
2018-02-22T12:17:25.446Z,35.40
2018-02-22T12:18:25.423Z,33.70
2018-02-22T12:19:25.481Z,32.50
2018-02-22T12:20:25.406Z,32.10
2018-02-22T12:21:25.397Z,31.60
2018-02-22T12:22:25.387Z,35.30
2018-02-22T12:23:25.380Z,34.70
2018-02-22T12:24:25.374Z,34.90
2018-02-22T12:25:25.365Z,34.60
2018-02-22T12:26:25.357Z,31.40
2018-02-22T12:27:25.353Z,34.70
2018-02-22T12:28:25.343Z,31.20
2018-02-22T12:29:25.333Z,33.20
2018-02-22T12:30:25.324Z,35.80
2018-02-22T12:31:25.317Z,34.70
2018-02-22T12:32:25.309Z,35.00
2018-02-22T12:33:25.298Z,30.60
2018-02-22T12:34:25.293Z,33.00
2018-02-22T12:35:25.284Z,34.40
2018-02-22T12:36:25.276Z,33.00
2018-02-22T12:37:25.267Z,30.60
2018-02-22T12:38:25.259Z,33.00
2018-02-22T12:39:25.251Z,32.10
2018-02-22T12:40:25.244Z,33.20
2018-02-22T12:41:25.234Z,32.80
2018-02-22T12:42:25.234Z,33.60
2018-02-22T12:43:25.268Z,33.80
2018-02-22T12:44:25.512Z,30.20
2018-02-22T12:45:25.202Z,30.90
2018-02-22T12:46:25.195Z,33.90
2018-02-22T12:47:25.186Z,30.60
2018-02-22T12:48:25.178Z,31.70
2018-02-22T12:49:25.193Z,33.50
2018-02-22T12:50:25.160Z,30.30
2018-02-22T12:51:25.153Z,30.20
2018-02-22T12:52:25.144Z,29.70